Time;durP1;ratioP1;P1;durP2;ratioP2;P2;SDS_P1;SDS_P2;PMS_P1;PMS_P2;Temp;Humidity;BMP_temperature;BMP_pressure;BME280_temperature;BME280_humidity;BME280_pressure;Samples;Min_cycle;Max_cycle;Signal;HPM_P1;HPM_P2
2023/01/14 00:01:07;;;;;;;4.23;2.00;;;;;;;6.99;89.06;100460.25;5049339;28;20297;-82
2023/01/14 00:03:34;;;;;;;5.77;2.13;;;;;;;6.96;88.88;100455.97;5048779;28;20598;-84
2023/01/14 00:06:03;;;;;;;4.90;2.30;;;;;;;6.94;88.89;100469.28;5046074;28;20214;-84
2023/01/14 00:08:31;;;;;;;5.47;2.40;;;;;;;6.96;88.87;100474.50;5043827;28;20237;-84
2023/01/14 00:11:01;;;;;;;7.83;2.40;;;;;;;6.95;89.41;100473.66;5046870;28;20646;-83
2023/01/14 00:13:28;;;;;;;5.70;2.37;;;;;;;6.96;88.71;100478.00;5047790;28;20206;-84
2023/01/14 00:15:57;;;;;;;6.40;2.10;;;;;;;6.97;88.89;100477.06;5047007;28;20198;-84
2023/01/14 00:18:25;;;;;;;5.63;1.90;;;;;;;6.98;88.81;100472.63;5049759;28;20247;-83
2023/01/14 00:21:00;;;;;;;6.40;1.87;;;;;;;6.99;89.35;100476.97;5050031;28;20675;-81
2023/01/14 00:23:29;;;;;;;7.67;2.23;;;;;;;7.00;88.35;100473.38;5045420;28;20586;-83
2023/01/14 00:26:01;;;;;;;4.63;1.50;;;;;;;7.02;88.33;100481.25;5050773;28;20680;-82
2023/01/14 00:28:31;;;;;;;4.67;1.50;;;;;;;7.01;88.02;100484.84;5043796;28;20245;-84
2023/01/14 00:31:05;;;;;;;3.70;1.97;;;;;;;7.01;87.98;100496.28;5049067;28;20202;-83
2023/01/14 00:33:32;;;;;;;6.03;1.80;;;;;;;7.02;87.96;100494.50;5046851;28;20201;-82
2023/01/14 00:35:59;;;;;;;8.90;2.97;;;;;;;6.99;87.74;100495.50;5051284;28;20201;-83
2023/01/14 00:38:26;;;;;;;7.40;2.67;;;;;;;7.00;87.95;100493.72;5049456;28;20237;-84
2023/01/14 00:41:07;;;;;;;5.37;1.93;;;;;;;7.03;87.43;100501.50;5046397;28;20205;-83
2023/01/14 00:43:34;;;;;;;5.90;2.33;;;;;;;7.02;86.65;100505.09;5050676;28;20241;-81
2023/01/14 00:46:00;;;;;;;6.43;2.43;;;;;;;7.01;87.16;100498.94;5046115;28;20248;-84
2023/01/14 00:48:27;;;;;;;4.83;1.70;;;;;;;7.03;86.74;100490.91;5047822;28;20205;-84
2023/01/14 00:50:53;;;;;;;5.20;2.00;;;;;;;7.04;86.38;100496.13;5049522;28;20233;-82
2023/01/14 00:53:20;;;;;;;4.70;1.83;;;;;;;7.06;85.74;100496.06;5046238;28;20228;-83
2023/01/14 00:55:46;;;;;;;3.77;2.03;;;;;;;7.08;85.63;100496.84;5046697;28;20209;-85
2023/01/14 00:58:14;;;;;;;5.70;2.33;;;;;;;7.07;85.61;100509.22;5048005;28;20698;-83
2023/01/14 01:00:40;;;;;;;3.03;1.63;;;;;;;7.08;85.16;100505.63;5048317;28;20236;-82
2023/01/14 01:03:07;;;;;;;5.13;1.77;;;;;;;7.10;84.89;100514.38;5045128;28;20214;-83
2023/01/14 01:05:35;;;;;;;5.30;1.83;;;;;;;7.11;84.92;100509.94;5045044;28;20198;-83
2023/01/14 01:08:01;;;;;;;2.93;1.53;;;;;;;7.11;84.71;100505.50;5040356;28;20237;-81
2023/01/14 01:10:28;;;;;;;4.87;1.70;;;;;;;7.12;84.59;100504.56;5042708;28;20205;-85
2023/01/14 01:12:54;;;;;;;8.10;2.67;;;;;;;7.13;84.38;100513.34;5045431;28;20248;-83
2023/01/14 01:15:22;;;;;;;2.97;1.67;;;;;;;7.14;84.41;100520.38;5047114;28;20202;-83
2023/01/14 01:17:48;;;;;;;5.43;2.27;;;;;;;7.12;84.18;100519.59;5051184;28;20198;-83
2023/01/14 01:20:15;;;;;;;5.20;2.60;;;;;;;7.13;84.03;100530.09;5055167;28;20209;-83
2023/01/14 01:22:42;;;;;;;5.37;2.80;;;;;;;7.14;83.40;100525.66;5051023;28;20217;-83
2023/01/14 01:25:09;;;;;;;6.27;2.43;;;;;;;7.12;83.65;100522.22;5046253;28;20193;-83
2023/01/14 01:27:36;;;;;;;4.60;2.10;;;;;;;7.11;82.92;100521.38;5050755;28;20194;-83
2023/01/14 01:30:03;;;;;;;7.87;2.40;;;;;;;7.10;83.21;100534.69;5049889;28;20216;-83
2023/01/14 01:32:30;;;;;;;9.07;2.57;;;;;;;7.11;83.01;100531.97;5051084;28;20224;-85
2023/01/14 01:34:57;;;;;;;14.23;2.17;;;;;;;7.10;83.98;100529.41;5043682;28;20958;-84
2023/01/14 01:37:24;;;;;;;5.70;2.30;;;;;;;7.09;82.92;100543.56;5049176;28;20209;-84
2023/01/14 01:39:50;;;;;;;5.07;1.77;;;;;;;7.08;83.64;100536.56;5051986;28;20227;-82
2023/01/14 01:42:19;;;;;;;6.13;2.10;;;;;;;7.07;84.11;100540.13;5049691;28;20231;-82
2023/01/14 01:45:21;;;;;;;8.97;2.53;;;;;;;7.08;83.60;100537.41;5049252;28;20201;-84
2023/01/14 01:47:54;;;;;;;7.80;2.17;;;;;;;7.07;83.37;100540.13;5047874;28;20205;-83
2023/01/14 01:50:21;;;;;;;5.03;2.07;;;;;;;7.06;84.24;100539.28;5045095;28;20206;-85
2023/01/14 01:52:48;;;;;;;4.57;1.97;;;;;;;7.05;83.77;100561.41;5048550;28;20221;-84
2023/01/14 01:55:15;;;;;;;8.87;2.30;;;;;;;7.03;83.77;100557.09;5050661;28;20209;-84
2023/01/14 01:57:43;;;;;;;3.87;1.90;;;;;;;7.05;83.83;100566.69;5050108;28;20205;-83
2023/01/14 02:00:11;;;;;;;10.10;2.27;;;;;;;7.04;83.94;100566.78;5043817;28;20618;-81
2023/01/14 02:02:37;;;;;;;7.60;1.60;;;;;;;7.05;83.81;100573.78;5043391;28;20235;-83
2023/01/14 02:05:06;;;;;;;6.33;1.87;;;;;;;7.03;84.27;100568.56;5042270;28;20209;-82
2023/01/14 02:07:33;;;;;;;4.37;1.73;;;;;;;7.03;84.03;100567.69;5044752;28;20198;-84
2023/01/14 02:10:02;;;;;;;4.47;1.90;;;;;;;7.03;84.50;100571.19;5047692;28;20201;-83
2023/01/14 02:12:39;;;;;;;7.50;2.20;;;;;;;7.02;84.25;100569.50;5039507;28;20233;-79
2023/01/14 02:15:20;;;;;;;7.73;2.27;;;;;;;7.02;84.15;100584.53;5047223;28;20213;-84
2023/01/14 02:18:01;;;;;;;5.10;1.83;;;;;;;7.04;84.32;100588.81;5049673;28;20476;-83
2023/01/14 02:20:36;;;;;;;6.20;1.93;;;;;;;7.04;84.05;100583.50;5046309;28;20193;-84
2023/01/14 02:23:35;;;;;;;4.97;2.00;;;;;;;7.05;83.94;100585.22;5051256;28;20232;-84
2023/01/14 02:26:49;;;;;;;5.93;1.60;;;;;;;7.04;84.86;100588.81;5039605;28;20303;-82
2023/01/14 02:29:49;;;;;;;9.23;2.40;;;;;;;7.04;84.76;100586.16;5014399;28;20212;-82
2023/01/14 02:32:22;;;;;;;5.23;1.73;;;;;;;7.03;83.83;100595.03;5046147;28;20217;-83
2023/01/14 02:34:56;;;;;;;6.53;2.13;;;;;;;7.05;84.62;100592.31;5040648;28;20197;-84
2023/01/14 02:37:30;;;;;;;5.43;2.00;;;;;;;7.06;84.56;100592.25;5047030;28;20201;-84
2023/01/14 02:40:04;;;;;;;6.57;2.27;;;;;;;7.08;84.26;100584.22;5046510;28;20231;-84
2023/01/14 02:45:45;;;;;;;6.50;2.37;;;;;;;7.05;84.58;100601.13;4984287;28;20199;-81
2023/01/14 02:48:15;;;;;;;7.17;1.93;;;;;;;7.07;83.94;100593.09;4990456;28;20211;-85
2023/01/14 02:50:42;;;;;;;10.43;2.60;;;;;;;7.07;84.46;100595.75;5020250;28;20212;-84
2023/01/14 02:53:09;;;;;;;5.20;1.80;;;;;;;7.08;84.14;100597.47;5045116;28;20225;-84
2023/01/14 02:55:38;;;;;;;8.23;1.80;;;;;;;7.07;84.58;100601.91;5042886;28;21087;-84
2023/01/14 02:58:25;;;;;;;6.40;1.60;;;;;;;7.04;84.55;100599.41;5046954;28;20217;-83
2023/01/14 03:01:04;;;;;;;8.37;2.47;;;;;;;7.05;84.66;100608.22;5039628;28;20206;-84
2023/01/14 03:03:46;;;;;;;9.07;1.87;;;;;;;7.02;84.47;100590.66;5039662;28;20194;-85
2023/01/14 03:06:26;;;;;;;6.57;2.00;;;;;;;7.05;83.98;100581.72;5043574;28;20197;-85
2023/01/14 03:09:00;;;;;;;6.20;1.93;;;;;;;7.04;84.65;100594.09;5051051;28;20208;-84
2023/01/14 03:11:37;;;;;;;5.87;1.90;;;;;;;7.02;84.14;100590.66;5058051;28;20224;-83
2023/01/14 03:14:11;;;;;;;6.97;2.57;;;;;;;7.02;84.04;100589.81;5049531;28;20205;-85
2023/01/14 03:16:42;;;;;;;5.17;2.37;;;;;;;7.04;84.08;100591.47;5040354;28;20197;-82
2023/01/14 03:19:14;;;;;;;6.27;2.20;;;;;;;7.03;83.73;100588.88;5060031;28;20234;-84
2023/01/14 03:21:45;;;;;;;7.67;3.20;;;;;;;7.04;84.13;100582.66;5054541;28;20727;-83
2023/01/14 03:24:15;;;;;;;8.63;3.20;;;;;;;7.03;84.13;100587.09;5046179;28;20212;-82
2023/01/14 03:26:46;;;;;;;6.33;2.77;;;;;;;7.05;84.31;100589.66;5053166;28;20206;-83
2023/01/14 03:29:18;;;;;;;11.27;3.20;;;;;;;7.06;84.02;100594.03;5049562;28;20288;-84
2023/01/14 03:31:54;;;;;;;8.23;3.90;;;;;;;7.04;84.00;100587.94;5050361;28;20225;-80
2023/01/14 03:34:27;;;;;;;11.60;4.20;;;;;;;7.03;84.51;100580.94;5045026;28;20938;-84
2023/01/14 03:36:57;;;;;;;8.23;3.77;;;;;;;7.01;84.14;100572.22;5048929;28;20202;-85
2023/01/14 03:39:26;;;;;;;8.37;3.40;;;;;;;7.03;84.31;100570.34;5047913;28;20217;-84
2023/01/14 03:44:47;;;;;;;10.13;3.80;;;;;;;6.99;84.43;100584.69;5052306;28;20208;-83
2023/01/14 03:47:15;;;;;;;8.30;3.30;;;;;;;7.00;84.77;100581.09;5041478;28;20664;-83
2023/01/14 03:49:42;;;;;;;13.03;4.03;;;;;;;6.99;84.92;100585.53;5053783;28;20210;-84
2023/01/14 03:52:15;;;;;;;9.67;3.50;;;;;;;7.01;84.79;100577.50;5051697;28;20692;-84
2023/01/14 03:54:49;;;;;;;9.47;3.57;;;;;;;6.99;84.25;100568.81;5056269;28;20211;-83
2023/01/14 03:57:20;;;;;;;8.07;3.77;;;;;;;6.95;84.22;100573.41;5053045;28;20213;-82
2023/01/14 03:59:54;;;;;;;12.13;4.03;;;;;;;6.97;83.78;100579.47;5051269;28;20737;-80
2023/01/14 04:02:24;;;;;;;7.90;4.20;;;;;;;6.94;83.91;100571.69;5044285;28;20221;-83
2023/01/14 04:04:52;;;;;;;8.60;3.87;;;;;;;6.89;84.38;100577.19;5047141;28;20213;-84
2023/01/14 04:07:18;;;;;;;9.70;4.13;;;;;;;6.86;84.58;100573.84;5050767;28;20563;-83
2023/01/14 04:09:45;;;;;;;10.87;4.27;;;;;;;6.84;84.64;100586.28;5047879;28;20198;-83
2023/01/14 04:12:11;;;;;;;12.07;4.30;;;;;;;6.84;85.17;100587.13;5048544;28;20590;-83
2023/01/14 04:17:37;;;;;;;13.47;5.30;;;;;;;6.86;84.91;100593.22;4980132;28;20212;-84
2023/01/14 04:20:05;;;;;;;25.93;5.00;;;;;;;6.87;84.66;100580.84;4989009;28;20319;-84
2023/01/14 04:22:32;;;;;;;16.53;4.30;;;;;;;6.87;84.72;100584.34;5005848;28;20229;-85
2023/01/14 04:24:59;;;;;;;11.73;4.27;;;;;;;6.89;84.79;100584.28;5038590;28;20203;-84
2023/01/14 04:27:26;;;;;;;13.27;4.07;;;;;;;6.88;84.69;100586.06;5045285;28;20666;-82
2023/01/14 04:29:52;;;;;;;10.03;4.10;;;;;;;6.89;84.72;100590.44;5050405;28;20208;-84
2023/01/14 04:32:19;;;;;;;11.50;3.80;;;;;;;6.90;84.43;100589.50;5052549;28;20231;-85
2023/01/14 04:34:46;;;;;;;9.63;3.97;;;;;;;6.92;84.68;100592.06;5048480;28;20202;-83
2023/01/14 04:37:13;;;;;;;10.60;4.17;;;;;;;6.91;84.89;100587.72;5045563;28;20212;-84
2023/01/14 04:39:39;;;;;;;12.00;4.27;;;;;;;6.91;84.72;100583.28;5046192;28;20226;-86
2023/01/14 04:44:50;;;;;;;10.57;3.53;;;;;;;6.90;84.14;100593.94;5047787;28;20861;-85
2023/01/14 04:47:17;;;;;;;19.37;4.37;;;;;;;6.89;84.62;100579.84;5051908;28;20281;-81
2023/01/14 04:49:43;;;;;;;14.43;4.43;;;;;;;6.92;84.00;100584.13;5047624;28;20206;-83
2023/01/14 04:52:11;;;;;;;12.57;3.93;;;;;;;6.89;84.54;100585.13;5051148;28;20618;-85
2023/01/14 04:54:37;;;;;;;14.30;4.27;;;;;;;6.92;84.37;100590.28;5043704;28;20198;-83
2023/01/14 04:57:04;;;;;;;12.90;3.53;;;;;;;6.91;84.81;100585.06;5049850;28;20204;-85
2023/01/14 04:59:31;;;;;;;9.20;3.40;;;;;;;6.92;84.65;100585.00;5045539;28;20227;-84
2023/01/14 05:01:57;;;;;;;15.97;3.70;;;;;;;6.93;84.10;100602.59;5047336;28;20222;-83
2023/01/14 05:04:24;;;;;;;16.50;3.30;;;;;;;6.96;84.23;100598.94;5054923;28;20213;-82
2023/01/14 05:06:50;;;;;;;11.33;3.47;;;;;;;6.95;83.90;100600.72;5045271;28;20204;-84
2023/01/14 05:09:18;;;;;;;10.40;3.37;;;;;;;6.96;84.30;100596.28;5049147;28;20195;-82
2023/01/14 05:11:44;;;;;;;11.77;3.40;;;;;;;6.98;83.66;100583.84;5052172;28;20751;-84
2023/01/14 05:14:11;;;;;;;13.70;3.67;;;;;;;6.98;83.83;100589.13;5047685;28;20198;-83
2023/01/14 05:16:37;;;;;;;10.57;4.10;;;;;;;6.97;83.62;100590.94;5045524;28;20205;-84
2023/01/14 05:19:04;;;;;;;11.23;3.13;;;;;;;6.97;83.32;100593.56;5051492;28;20206;-84
2023/01/14 05:21:30;;;;;;;18.00;3.30;;;;;;;6.97;83.53;100584.78;5055008;28;20235;-83
2023/01/14 05:23:57;;;;;;;11.80;3.80;;;;;;;6.94;83.23;100596.38;5043512;28;20205;-82
2023/01/14 05:26:25;;;;;;;15.97;3.87;;;;;;;6.94;82.94;100587.56;5046047;28;20216;-82
2023/01/14 05:28:51;;;;;;;11.17;4.27;;;;;;;6.94;82.93;100587.56;5052047;28;20206;-83
2023/01/14 05:31:18;;;;;;;19.27;4.20;;;;;;;6.98;82.99;100586.50;5049996;28;20217;-84
2023/01/14 05:33:44;;;;;;;13.87;3.30;;;;;;;6.96;83.02;100580.41;5055297;28;20206;-84
2023/01/14 05:36:11;;;;;;;11.17;3.00;;;;;;;6.96;82.97;100578.63;5048070;28;20207;-84
2023/01/14 05:38:37;;;;;;;15.67;4.00;;;;;;;6.99;83.17;100569.63;5044882;28;20239;-84
2023/01/14 05:41:04;;;;;;;20.83;4.10;;;;;;;6.97;82.61;100567.09;5047182;28;20230;-83
2023/01/14 05:46:18;;;;;;;15.47;4.27;;;;;;;6.97;82.86;100566.25;5049773;28;20212;-84
2023/01/14 05:48:45;;;;;;;9.90;3.13;;;;;;;6.97;83.23;100563.59;5046247;28;20198;-81
2023/01/14 05:51:13;;;;;;;16.87;4.27;;;;;;;6.94;82.37;100569.88;5046107;28;20201;-82
2023/01/14 05:53:39;;;;;;;11.70;3.50;;;;;;;6.93;82.71;100568.16;5038316;28;20226;-82
2023/01/14 05:56:07;;;;;;;10.30;2.90;;;;;;;6.94;82.41;100561.94;5045507;28;20206;-85
2023/01/14 05:58:35;;;;;;;16.00;3.50;;;;;;;6.93;82.57;100557.59;5047149;28;20202;-83
2023/01/14 06:06:33;;;;;;;8.30;2.80;;;;;;;6.92;82.64;100563.81;5048968;28;20201;-85
2023/01/14 06:09:02;;;;;;;14.60;4.27;;;;;;;6.92;82.44;100553.22;5035653;28;20657;-82
2023/01/14 06:11:32;;;;;;;13.63;2.77;;;;;;;6.95;82.32;100558.38;5042841;28;20230;-83
2023/01/14 06:14:01;;;;;;;10.10;2.80;;;;;;;6.93;82.26;100549.63;5050777;28;20197;-82
2023/01/14 06:16:30;;;;;;;9.53;2.90;;;;;;;6.93;81.98;100554.94;5047959;28;20198;-84
2023/01/14 06:18:57;;;;;;;13.23;3.20;;;;;;;6.94;82.00;100551.34;5041104;28;20212;-84
2023/01/14 06:21:27;;;;;;;11.47;3.47;;;;;;;6.93;81.85;100544.34;5044702;28;20696;-83
2023/01/14 06:23:54;;;;;;;17.83;3.00;;;;;;;6.93;81.35;100539.06;5048851;28;20206;-83
2023/01/14 06:26:26;;;;;;;11.07;2.57;;;;;;;6.94;81.49;100546.06;5047182;28;20660;-83
2023/01/14 06:28:55;;;;;;;13.37;2.80;;;;;;;6.93;81.45;100549.63;5046446;28;20202;-85
2023/01/14 06:31:23;;;;;;;11.90;2.87;;;;;;;6.93;81.48;100540.84;5055125;28;20240;-81
2023/01/14 06:33:50;;;;;;;12.00;2.70;;;;;;;6.92;81.25;100531.19;5044093;28;20198;-83
2023/01/14 06:36:16;;;;;;;10.90;2.40;;;;;;;6.93;80.68;100533.75;5039167;28;20205;-83
2023/01/14 06:38:43;;;;;;;11.37;2.20;;;;;;;6.95;81.20;100528.38;5041128;28;20206;-83
2023/01/14 06:41:11;;;;;;;14.13;2.63;;;;;;;6.93;80.69;100525.81;5048374;28;20244;-82
2023/01/14 06:43:40;;;;;;;10.17;2.23;;;;;;;6.94;81.31;100516.94;5049525;28;20304;-83
2023/01/14 06:46:06;;;;;;;9.90;2.23;;;;;;;6.94;80.27;100519.59;5045884;28;20926;-84
2023/01/14 06:48:34;;;;;;;9.90;2.50;;;;;;;6.94;80.31;100516.94;5051752;28;20205;-84
2023/01/14 06:51:04;;;;;;;8.90;2.17;;;;;;;6.93;80.15;100514.38;5046487;28;20205;-83
2023/01/14 06:53:31;;;;;;;9.20;2.23;;;;;;;6.93;80.05;100498.47;5048935;28;20604;-84
2023/01/14 06:56:01;;;;;;;9.43;2.67;;;;;;;6.93;80.05;100509.06;5048506;28;20205;-82
2023/01/14 06:58:27;;;;;;;10.60;2.60;;;;;;;6.92;79.85;100502.06;5045729;28;20198;-83
2023/01/14 07:00:54;;;;;;;10.43;3.47;;;;;;;6.91;79.24;100506.50;5053841;28;20228;-83
2023/01/14 07:03:21;;;;;;;6.93;2.40;;;;;;;6.90;79.44;100499.50;5049203;28;20620;-84
2023/01/14 07:05:49;;;;;;;12.30;3.07;;;;;;;6.91;79.04;100500.34;5048718;28;20715;-83
2023/01/14 07:08:15;;;;;;;11.23;2.63;;;;;;;6.90;79.13;100499.50;5046334;28;20205;-84
2023/01/14 07:10:42;;;;;;;13.67;3.00;;;;;;;6.91;78.53;100503.84;5047061;28;20218;-84
2023/01/14 07:13:08;;;;;;;9.93;2.00;;;;;;;6.93;78.66;100495.84;5047390;28;20770;-82
2023/01/14 07:15:35;;;;;;;6.60;2.40;;;;;;;6.90;79.01;100496.84;5048215;28;20232;-83
2023/01/14 07:18:01;;;;;;;10.57;1.97;;;;;;;6.92;79.07;100494.97;5048858;28;20213;-84
2023/01/14 07:20:28;;;;;;;12.70;2.37;;;;;;;6.92;78.75;100502.91;5045807;28;20225;-81
2023/01/14 07:22:56;;;;;;;15.53;3.40;;;;;;;6.94;78.68;100497.53;5046856;28;20225;-84
2023/01/14 07:25:22;;;;;;;8.97;2.10;;;;;;;6.95;78.37;100496.63;5051242;28;20198;-84
2023/01/14 07:27:52;;;;;;;10.87;2.53;;;;;;;6.92;77.99;100489.69;5042524;28;20205;-84
2023/01/14 07:30:18;;;;;;;11.50;2.37;;;;;;;6.90;78.68;100491.53;5048022;28;20573;-83
2023/01/14 07:32:45;;;;;;;10.10;2.83;;;;;;;6.88;77.97;100487.25;5045718;28;20213;-83
2023/01/14 07:35:11;;;;;;;11.83;2.60;;;;;;;6.86;78.36;100481.19;5044748;28;20206;-84
2023/01/14 07:37:38;;;;;;;10.40;2.53;;;;;;;6.85;78.06;100469.72;5051331;28;20197;-83
2023/01/14 07:40:07;;;;;;;10.23;2.77;;;;;;;6.86;77.41;100466.16;5050903;28;20229;-84
2023/01/14 07:42:34;;;;;;;9.93;3.10;;;;;;;6.86;76.63;100463.50;5050806;28;20244;-85
2023/01/14 07:45:00;;;;;;;11.77;3.67;;;;;;;6.83;77.68;100457.50;5051007;28;20201;-83
2023/01/14 07:47:27;;;;;;;11.30;2.93;;;;;;;6.83;77.16;100462.81;5050987;28;20193;-84
2023/01/14 07:49:53;;;;;;;8.57;5.43;;;;;;;6.81;76.62;100449.63;5052409;28;20205;-84
2023/01/14 07:52:20;;;;;;;12.47;3.33;;;;;;;6.80;76.81;100452.41;5048321;28;20233;-83
2023/01/14 07:54:46;;;;;;;10.13;3.13;;;;;;;6.79;76.86;100442.75;5044717;28;20205;-83
2023/01/14 07:57:14;;;;;;;12.37;3.30;;;;;;;6.78;76.91;100441.03;5041084;28;20217;-83
2023/01/14 07:59:41;;;;;;;9.97;2.50;;;;;;;6.77;76.58;100434.03;5045647;28;20672;-84
2023/01/14 08:02:12;;;;;;;8.17;3.33;;;;;;;6.76;76.69;100432.31;5048586;28;20626;-83
2023/01/14 08:04:39;;;;;;;9.10;2.80;;;;;;;6.75;76.52;100438.53;5046029;28;20204;-83
2023/01/14 08:07:06;;;;;;;10.30;2.87;;;;;;;6.72;76.15;100436.91;5048181;28;20228;-83
2023/01/14 08:09:32;;;;;;;7.97;2.93;;;;;;;6.72;76.56;100439.53;5048202;28;20206;-83
2023/01/14 08:11:59;;;;;;;9.27;2.83;;;;;;;6.69;76.33;100437.03;5044688;28;20232;-86
2023/01/14 08:14:27;;;;;;;8.10;2.17;;;;;;;6.67;76.66;100430.97;5049747;28;20218;-81
2023/01/14 08:16:53;;;;;;;6.50;1.80;;;;;;;6.67;76.55;100419.53;5039293;28;20198;-84
2023/01/14 08:19:20;;;;;;;10.83;2.30;;;;;;;6.65;76.36;100418.75;5047753;28;20209;-82
2023/01/14 08:21:46;;;;;;;12.73;2.20;;;;;;;6.63;77.24;100419.69;5047816;28;20236;-84
2023/01/14 08:24:13;;;;;;;13.50;2.60;;;;;;;6.61;77.28;100418.94;5054432;28;20224;-84
2023/01/14 08:26:39;;;;;;;7.30;2.50;;;;;;;6.60;77.99;100424.28;5048192;28;20204;-81
2023/01/14 08:29:06;;;;;;;6.17;1.83;;;;;;;6.58;77.97;100427.00;5044757;28;20214;-83
2023/01/14 08:31:34;;;;;;;9.50;2.33;;;;;;;6.57;78.61;100427.09;5042112;28;20223;-84
2023/01/14 08:34:09;;;;;;;9.87;2.87;;;;;;;6.54;78.67;100436.03;5043303;28;20199;-82
2023/01/14 08:36:35;;;;;;;10.03;2.37;;;;;;;6.52;79.19;100427.31;5044701;28;20209;-85
2023/01/14 08:39:02;;;;;;;11.27;2.80;;;;;;;6.53;79.53;100422.88;5038629;28;20222;-82
2023/01/14 08:41:29;;;;;;;9.20;2.70;;;;;;;6.50;79.17;100415.09;5043861;28;20233;-80
2023/01/14 08:43:56;;;;;;;8.27;2.43;;;;;;;6.48;79.13;100415.16;5045489;28;20202;-83
2023/01/14 08:46:23;;;;;;;9.63;2.43;;;;;;;6.47;80.04;100415.25;5040134;28;20759;-83
2023/01/14 08:48:51;;;;;;;11.63;2.10;;;;;;;6.47;80.10;100410.81;5040966;28;20212;-84
2023/01/14 08:51:18;;;;;;;10.03;2.83;;;;;;;6.46;79.75;100406.44;5042282;28;20205;-84
2023/01/14 08:53:45;;;;;;;11.07;1.80;;;;;;;6.46;79.91;100402.94;5044014;28;20240;-83
2023/01/14 08:56:15;;;;;;;9.33;2.70;;;;;;;6.49;80.40;100390.41;5039313;28;20217;-82
2023/01/14 08:58:42;;;;;;;7.83;2.00;;;;;;;6.50;79.94;100383.34;5043384;28;20547;-83
2023/01/14 09:01:10;;;;;;;8.53;1.90;;;;;;;6.53;79.72;100377.91;5043327;28;20226;-82
2023/01/14 09:03:37;;;;;;;7.83;2.30;;;;;;;6.56;79.38;100383.03;5042399;28;20289;-83
2023/01/14 09:06:08;;;;;;;8.00;2.53;;;;;;;6.55;79.65;100365.44;5042999;28;20603;-83
2023/01/14 09:17:06;;;;;;;9.57;1.87;;;;;;;6.54;79.71;100343.44;5038311;28;20210;-85
2023/01/14 09:19:35;;;;;;;8.73;1.70;;;;;;;6.55;79.51;100341.63;5044312;28;20201;-85
2023/01/14 09:22:04;;;;;;;7.67;2.00;;;;;;;6.56;79.09;100333.63;5044010;28;20233;-83
2023/01/14 09:24:31;;;;;;;6.10;2.20;;;;;;;6.55;79.50;100325.75;5038933;28;20213;-82
2023/01/14 09:26:58;;;;;;;10.47;2.17;;;;;;;6.55;79.76;100333.69;5038704;28;20210;-84
2023/01/14 09:29:24;;;;;;;9.23;2.17;;;;;;;6.57;79.37;100316.81;5045183;28;20202;-84
2023/01/14 09:31:51;;;;;;;9.33;2.27;;;;;;;6.59;79.43;100322.03;5045579;28;20252;-84
2023/01/14 09:34:18;;;;;;;11.33;2.53;;;;;;;6.59;79.54;100322.03;5046820;28;20202;-85
2023/01/14 09:36:44;;;;;;;7.03;1.87;;;;;;;6.59;79.58;100324.69;5050857;28;20255;-84
2023/01/14 09:39:12;;;;;;;10.90;2.47;;;;;;;6.60;79.58;100313.16;5047188;28;20631;-84
2023/01/14 09:41:49;;;;;;;12.97;2.13;;;;;;;6.62;79.43;100306.00;5039302;28;20226;-84
2023/01/14 09:44:16;;;;;;;10.73;2.37;;;;;;;6.68;79.45;100318.03;5043445;28;20334;-84
2023/01/14 09:46:42;;;;;;;5.50;1.77;;;;;;;6.66;79.20;100314.59;5048107;28;20210;-84
2023/01/14 09:49:14;;;;;;;10.90;2.27;;;;;;;6.66;79.65;100311.97;5044091;28;20217;-86
2023/01/14 09:52:04;;;;;;;9.80;2.00;;;;;;;6.67;79.44;100309.25;5043671;28;20607;-85
2023/01/14 09:54:39;;;;;;;9.03;1.90;;;;;;;6.66;79.22;100304.88;5046454;28;20201;-84
2023/01/14 09:57:15;;;;;;;8.73;2.07;;;;;;;6.66;78.94;100285.50;5041905;28;20197;-83
2023/01/14 09:59:51;;;;;;;8.90;2.30;;;;;;;6.69;79.36;100288.84;5042933;28;20227;-83
2023/01/14 10:02:20;;;;;;;8.57;1.70;;;;;;;6.72;79.28;100286.03;5040630;28;20233;-84
2023/01/14 10:05:13;;;;;;;5.87;1.73;;;;;;;6.75;78.93;100282.38;5043670;28;20211;-83
2023/01/14 10:07:40;;;;;;;8.57;2.57;;;;;;;6.75;78.80;100258.56;5040139;28;20198;-83
2023/01/14 10:10:21;;;;;;;8.70;3.17;;;;;;;6.78;78.84;100251.31;5039885;28;20202;-84
2023/01/14 10:12:49;;;;;;;8.17;2.33;;;;;;;6.81;78.50;100243.19;5045130;28;20221;-82
2023/01/14 10:15:27;;;;;;;10.40;2.33;;;;;;;6.84;78.93;100236.88;5037978;28;20214;-83
2023/01/14 10:17:58;;;;;;;8.47;2.07;;;;;;;6.85;78.24;100223.56;5040255;28;20207;-83
2023/01/14 10:20:30;;;;;;;8.53;1.80;;;;;;;6.88;78.49;100202.22;5043504;28;20237;-83
2023/01/14 10:23:03;;;;;;;13.87;2.47;;;;;;;6.90;78.70;100204.78;5041210;28;20224;-82
2023/01/14 10:25:31;;;;;;;6.80;1.87;;;;;;;6.90;79.03;100197.69;5044956;28;20829;-81
2023/01/14 10:28:00;;;;;;;10.67;1.90;;;;;;;6.95;78.63;100189.50;5039117;28;20198;-84
2023/01/14 10:30:31;;;;;;;7.47;1.90;;;;;;;6.91;79.32;100188.81;5036759;28;20206;-84
2023/01/14 10:33:00;;;;;;;8.60;1.90;;;;;;;6.95;79.27;100171.84;5034914;28;21013;-86
2023/01/14 10:35:32;;;;;;;6.70;1.73;;;;;;;7.00;78.93;100165.41;5046308;28;20198;-85
2023/01/14 10:37:59;;;;;;;8.70;2.70;;;;;;;6.96;79.42;100162.09;5046278;28;20225;-84
2023/01/14 10:40:27;;;;;;;12.17;1.90;;;;;;;6.98;80.31;100144.34;5040308;28;20422;-84
2023/01/14 10:42:57;;;;;;;7.30;2.20;;;;;;;7.02;79.92;100142.34;5044710;28;20264;-82
2023/01/14 10:45:23;;;;;;;7.47;1.70;;;;;;;7.01;80.31;100143.28;5043366;28;20220;-83
2023/01/14 10:47:55;;;;;;;10.33;2.00;;;;;;;7.00;79.92;100134.47;5039526;28;20811;-84
2023/01/14 10:50:24;;;;;;;19.00;2.23;;;;;;;7.00;80.79;100146.88;5043315;28;20212;-83
2023/01/14 10:52:52;;;;;;;10.30;2.20;;;;;;;7.00;81.00;100138.94;5036635;28;20229;-82
2023/01/14 10:55:22;;;;;;;6.43;1.70;;;;;;;6.99;81.26;100140.72;5038936;28;20202;-83
2023/01/14 10:57:51;;;;;;;11.63;2.67;;;;;;;6.97;81.78;100130.25;5042400;28;20212;-82
2023/01/14 11:00:34;;;;;;;7.90;2.37;;;;;;;7.01;82.64;100112.38;5035850;28;20205;-82
2023/01/14 11:03:02;;;;;;;11.63;2.17;;;;;;;6.95;82.69;100105.66;5032673;28;20647;-82
2023/01/14 11:05:30;;;;;;;6.27;1.97;;;;;;;6.92;83.13;100095.22;5042695;28;20218;-81
2023/01/14 11:08:00;;;;;;;8.10;2.03;;;;;;;6.92;84.07;100087.28;5040478;28;20558;-82
2023/01/14 11:10:29;;;;;;;10.87;2.30;;;;;;;6.90;83.80;100065.34;5043911;28;20202;-82
2023/01/14 11:13:23;;;;;;;6.90;2.13;;;;;;;6.91;83.96;100061.75;5041549;28;20228;-82
2023/01/14 11:15:51;;;;;;;7.87;2.20;;;;;;;6.89;85.48;100090.09;5043529;28;20198;-82
2023/01/14 11:18:27;;;;;;;7.37;1.67;;;;;;;6.87;85.26;100076.09;5046811;28;20740;-82
2023/01/14 11:21:00;;;;;;;4.87;2.03;;;;;;;6.88;86.78;100071.66;5044305;28;20209;-85
2023/01/14 11:23:29;;;;;;;6.80;2.30;;;;;;;6.86;86.23;100047.91;5039835;28;20601;-83
2023/01/14 11:25:56;;;;;;;6.13;2.17;;;;;;;6.86;87.27;100042.63;5043408;28;20206;-82
2023/01/14 11:28:22;;;;;;;6.50;2.07;;;;;;;6.86;87.73;100050.56;5042043;28;20205;-83
2023/01/14 11:30:54;;;;;;;7.87;2.00;;;;;;;6.88;88.15;100038.09;5049654;28;20221;-84
2023/01/14 11:33:22;;;;;;;7.63;1.70;;;;;;;6.90;87.85;100025.63;5046124;28;20291;-84
2023/01/14 11:35:51;;;;;;;6.73;2.00;;;;;;;6.90;88.29;100009.75;5049895;28;20213;-83
2023/01/14 11:38:21;;;;;;;5.90;1.90;;;;;;;6.90;88.69;100000.97;5042752;28;20289;-82
2023/01/14 11:43:51;;;;;;;12.37;3.03;;;;;;;6.92;88.85;99959.38;5040788;28;20197;-82
2023/01/14 11:46:19;;;;;;;7.63;2.77;;;;;;;6.89;89.44;99956.91;5041765;28;20197;-82
2023/01/14 11:48:58;;;;;;;8.17;2.73;;;;;;;6.92;90.06;99948.78;5044197;28;20198;-82
2023/01/14 11:51:27;;;;;;;6.23;2.20;;;;;;;6.93;89.19;99934.59;5045465;28;20217;-83
2023/01/14 11:53:55;;;;;;;8.57;2.53;;;;;;;6.94;89.97;99921.28;5042243;28;20225;-84
2023/01/14 11:56:28;;;;;;;6.23;2.67;;;;;;;6.99;89.47;99904.28;5047337;28;20198;-83
2023/01/14 11:58:55;;;;;;;8.67;2.47;;;;;;;6.96;89.65;99900.88;5048061;28;20344;-84
2023/01/14 12:01:27;;;;;;;8.90;2.27;;;;;;;6.96;89.49;99881.47;5049840;28;20237;-85
2023/01/14 12:04:04;;;;;;;5.67;2.50;;;;;;;6.99;89.95;99875.16;5044800;28;20201;-84
2023/01/14 12:06:40;;;;;;;8.20;2.30;;;;;;;7.05;89.89;99864.16;5048018;28;20205;-84
2023/01/14 12:09:14;;;;;;;5.67;2.10;;;;;;;7.05;90.04;99850.94;5041197;28;20206;-84
2023/01/14 12:11:49;;;;;;;6.80;2.00;;;;;;;7.05;89.91;99843.84;5049702;28;20228;-85
2023/01/14 12:17:11;;;;;;;9.90;2.37;;;;;;;7.08;89.68;99819.81;5047067;28;20208;-84